createdAt,value
2023-01-07T00:00:52.487Z,1.80
2023-01-07T00:03:19.690Z,1.80
2023-01-07T00:05:46.897Z,2.30
2023-01-07T00:08:14.055Z,1.92
2023-01-07T00:10:41.237Z,2.00
2023-01-07T00:13:08.410Z,2.15
2023-01-07T00:15:35.560Z,1.90
2023-01-07T00:18:02.762Z,2.00
2023-01-07T00:20:29.922Z,3.53
2023-01-07T00:22:57.698Z,2.95
2023-01-07T00:25:24.845Z,2.35
2023-01-07T00:27:51.970Z,2.00
2023-01-07T00:30:19.229Z,2.15
2023-01-07T00:33:04.469Z,1.90
2023-01-07T00:35:32.592Z,1.98
2023-01-07T00:37:59.812Z,2.00
2023-01-07T00:40:27.020Z,2.15
2023-01-07T00:42:54.296Z,1.90
2023-01-07T00:45:22.375Z,1.88
2023-01-07T00:47:53.372Z,1.85
2023-01-07T00:50:27.618Z,1.65
2023-01-07T00:52:54.907Z,1.90
2023-01-07T00:55:22.257Z,1.73
2023-01-07T00:57:49.430Z,2.33
2023-01-07T01:00:17.276Z,1.95
2023-01-07T01:02:44.517Z,1.90
2023-01-07T01:05:11.739Z,1.98
2023-01-07T01:07:39.121Z,1.70
2023-01-07T01:10:07.075Z,2.35
2023-01-07T01:12:35.336Z,2.20
2023-01-07T01:15:03.112Z,2.30
2023-01-07T01:17:30.282Z,2.53
2023-01-07T01:19:57.421Z,3.00
2023-01-07T01:22:24.587Z,3.50
2023-01-07T01:24:51.861Z,3.30
2023-01-07T01:27:19.157Z,3.10
2023-01-07T01:29:46.366Z,2.67
2023-01-07T01:32:13.489Z,3.00
2023-01-07T01:34:40.723Z,2.47
2023-01-07T01:37:07.883Z,2.40
2023-01-07T01:39:35.016Z,2.53
2023-01-07T01:42:02.197Z,2.40
2023-01-07T01:44:30.397Z,2.63
2023-01-07T01:46:57.606Z,3.10
2023-01-07T01:49:26.474Z,2.73
2023-01-07T01:51:55.900Z,3.22
2023-01-07T01:54:23.292Z,3.65
2023-01-07T01:56:50.632Z,3.30
2023-01-07T01:59:18.967Z,3.50
2023-01-07T02:01:46.247Z,3.33
2023-01-07T02:04:14.312Z,3.67
2023-01-07T02:07:01.868Z,3.80
2023-01-07T02:09:29.079Z,3.55
2023-01-07T02:12:05.662Z,3.72
2023-01-07T02:14:38.825Z,3.25
2023-01-07T02:17:14.931Z,3.10
2023-01-07T02:19:44.834Z,3.90
2023-01-07T02:22:50.438Z,4.50
2023-01-07T02:25:20.536Z,3.67
2023-01-07T02:27:56.075Z,5.15
2023-01-07T02:30:26.253Z,5.50
2023-01-07T02:32:53.389Z,6.00
2023-01-07T02:35:23.609Z,5.90
2023-01-07T02:37:53.588Z,6.55
2023-01-07T02:40:25.677Z,6.13
2023-01-07T02:42:58.944Z,5.57
2023-01-07T02:45:30.743Z,5.97
2023-01-07T02:47:58.721Z,5.57
2023-01-07T02:50:25.880Z,6.05
2023-01-07T02:52:53.040Z,5.78
2023-01-07T02:55:22.525Z,5.40
2023-01-07T02:58:13.106Z,6.15
2023-01-07T03:00:46.184Z,7.90
2023-01-07T03:03:13.376Z,9.25
2023-01-07T03:05:42.698Z,9.13
2023-01-07T03:08:28.819Z,9.15
2023-01-07T03:10:59.747Z,8.43
2023-01-07T03:13:29.029Z,10.27
2023-01-07T03:16:15.080Z,9.30
2023-01-07T03:19:02.515Z,9.82
2023-01-07T03:21:30.084Z,10.38
2023-01-07T03:23:57.585Z,9.40
2023-01-07T03:26:25.751Z,9.98
2023-01-07T03:28:53.270Z,11.65
2023-01-07T03:31:21.075Z,12.35
2023-01-07T03:33:51.243Z,13.18
2023-01-07T03:36:19.013Z,13.35
2023-01-07T03:38:46.220Z,13.10
2023-01-07T03:41:33.343Z,13.55
2023-01-07T03:44:00.476Z,12.80
2023-01-07T03:46:27.825Z,14.65
2023-01-07T03:48:55.173Z,14.25
2023-01-07T03:51:22.331Z,13.77
2023-01-07T03:53:49.501Z,15.27
2023-01-07T03:56:16.672Z,16.00
2023-01-07T03:58:43.946Z,14.52
2023-01-07T04:01:11.209Z,14.30
2023-01-07T04:03:38.864Z,15.30
2023-01-07T04:06:06.026Z,15.80
2023-01-07T04:08:33.238Z,15.45
2023-01-07T04:11:00.416Z,16.15
2023-01-07T04:13:27.576Z,17.15
2023-01-07T04:15:54.782Z,16.40
2023-01-07T04:18:21.961Z,16.45
2023-01-07T04:20:49.281Z,18.83
2023-01-07T04:23:16.890Z,18.35
2023-01-07T04:25:47.148Z,18.55
2023-01-07T04:28:14.383Z,17.80
2023-01-07T04:30:41.645Z,17.48
2023-01-07T04:33:08.977Z,16.80
2023-01-07T04:35:36.195Z,17.48
2023-01-07T04:38:03.403Z,18.80
2023-01-07T04:40:30.609Z,18.75
2023-01-07T04:42:57.772Z,16.30
2023-01-07T04:45:24.934Z,17.10
2023-01-07T04:47:55.683Z,16.93
2023-01-07T04:50:22.938Z,17.10
2023-01-07T04:52:50.181Z,15.63
2023-01-07T04:55:17.706Z,17.85
2023-01-07T04:57:44.847Z,17.08
2023-01-07T05:00:12.292Z,18.25
2023-01-07T05:02:39.484Z,17.60
2023-01-07T05:05:06.759Z,17.10
2023-01-07T05:07:33.939Z,16.85
2023-01-07T05:10:01.073Z,17.40
2023-01-07T05:12:28.247Z,15.82
2023-01-07T05:14:55.379Z,16.17
2023-01-07T05:17:22.577Z,14.73
2023-01-07T05:19:49.787Z,15.20
2023-01-07T05:22:16.955Z,16.08
2023-01-07T05:24:44.112Z,15.98
2023-01-07T05:27:11.306Z,15.75
2023-01-07T05:29:38.515Z,16.77
2023-01-07T05:32:05.675Z,16.27
2023-01-07T05:34:32.853Z,16.20
2023-01-07T05:36:59.985Z,15.88
2023-01-07T05:39:27.235Z,16.50
2023-01-07T05:41:54.420Z,15.85
2023-01-07T05:44:21.558Z,16.35
2023-01-07T05:46:48.728Z,16.52
2023-01-07T05:49:15.870Z,16.58
2023-01-07T05:51:43.057Z,15.13
2023-01-07T05:54:10.248Z,16.77
2023-01-07T05:56:37.458Z,14.65
2023-01-07T05:59:04.713Z,14.30
2023-01-07T06:01:32.099Z,14.80
2023-01-07T06:03:59.801Z,15.75
2023-01-07T06:06:26.934Z,14.98
2023-01-07T06:08:54.122Z,15.17
2023-01-07T06:11:21.414Z,14.90
2023-01-07T06:13:48.617Z,14.20
2023-01-07T06:16:16.334Z,14.27
2023-01-07T06:18:43.550Z,14.25
2023-01-07T06:21:10.702Z,15.17
2023-01-07T06:23:38.048Z,14.38
2023-01-07T06:26:05.353Z,15.38
2023-01-07T06:28:32.525Z,15.02
2023-01-07T06:30:59.753Z,15.07
2023-01-07T06:33:26.919Z,15.90
2023-01-07T06:35:54.123Z,14.55
2023-01-07T06:38:21.328Z,14.98
2023-01-07T06:40:48.573Z,14.52
2023-01-07T06:43:15.705Z,15.65
2023-01-07T06:45:43.070Z,15.93
2023-01-07T06:48:10.187Z,13.60
2023-01-07T06:50:37.373Z,14.10
2023-01-07T06:53:04.627Z,14.32
2023-01-07T06:55:31.822Z,14.20
2023-01-07T06:57:59.039Z,14.52
2023-01-07T07:00:26.190Z,14.50
2023-01-07T07:02:53.459Z,15.38
2023-01-07T07:05:20.663Z,14.20
2023-01-07T07:07:47.890Z,14.43
2023-01-07T07:10:15.086Z,15.10
2023-01-07T07:12:42.240Z,16.08
2023-01-07T07:15:09.676Z,14.93
2023-01-07T07:17:36.880Z,15.30
2023-01-07T07:20:04.427Z,15.63
2023-01-07T07:22:31.603Z,15.60
2023-01-07T07:24:58.743Z,15.93
2023-01-07T07:27:25.913Z,15.38
2023-01-07T07:29:53.067Z,15.82
2023-01-07T07:32:20.319Z,15.00
2023-01-07T07:34:47.455Z,14.97
2023-01-07T07:37:14.600Z,15.40
2023-01-07T07:39:41.780Z,15.60
2023-01-07T07:42:08.996Z,15.55
2023-01-07T07:44:36.201Z,14.73
2023-01-07T07:47:03.344Z,14.95
2023-01-07T07:49:30.667Z,17.00
2023-01-07T07:51:57.792Z,16.15
2023-01-07T07:54:25.002Z,15.52
2023-01-07T07:56:52.265Z,15.70
2023-01-07T07:59:19.415Z,15.32
2023-01-07T08:01:46.667Z,14.45
2023-01-07T08:04:13.866Z,14.15
2023-01-07T08:06:41.146Z,13.98
2023-01-07T08:09:10.487Z,14.13
2023-01-07T08:11:37.655Z,13.68
2023-01-07T08:14:04.819Z,14.32
2023-01-07T08:16:32.013Z,12.80
2023-01-07T08:18:59.244Z,13.52
2023-01-07T08:21:26.405Z,12.75
2023-01-07T08:23:53.634Z,13.65
2023-01-07T08:26:20.792Z,15.00
2023-01-07T08:28:47.978Z,13.80
2023-01-07T08:31:15.203Z,14.15
2023-01-07T08:33:42.366Z,14.33
2023-01-07T08:36:22.191Z,12.82
2023-01-07T08:38:53.305Z,12.97
2023-01-07T08:41:23.679Z,13.63
2023-01-07T08:43:51.007Z,13.93
2023-01-07T08:46:18.324Z,11.95
2023-01-07T08:48:45.558Z,13.55
2023-01-07T08:51:12.823Z,12.98
2023-01-07T08:53:40.477Z,14.57
2023-01-07T08:56:07.851Z,14.98
2023-01-07T08:58:35.036Z,12.88
2023-01-07T09:01:03.110Z,12.35
2023-01-07T09:03:30.368Z,13.60
2023-01-07T09:05:57.536Z,13.45
2023-01-07T09:08:24.906Z,13.30
2023-01-07T09:10:52.064Z,13.18
2023-01-07T09:13:19.240Z,12.52
2023-01-07T09:15:46.425Z,13.23
2023-01-07T09:18:13.642Z,12.52
2023-01-07T09:20:40.805Z,13.20
2023-01-07T09:23:07.969Z,14.32
2023-01-07T09:25:35.158Z,12.60
2023-01-07T09:28:02.432Z,12.85
2023-01-07T09:30:29.805Z,12.57
2023-01-07T09:32:57.014Z,12.50
2023-01-07T09:35:24.207Z,13.05
2023-01-07T09:37:51.396Z,14.30
2023-01-07T09:40:24.602Z,13.57
2023-01-07T09:42:57.405Z,13.35
2023-01-07T09:45:34.624Z,13.50
2023-01-07T09:48:02.369Z,13.15
2023-01-07T09:50:32.581Z,13.15
2023-01-07T09:53:01.093Z,13.48
2023-01-07T09:55:37.857Z,11.75
2023-01-07T09:58:25.051Z,12.88
2023-01-07T10:00:58.275Z,12.23
2023-01-07T10:03:39.719Z,12.07
2023-01-07T10:06:13.124Z,12.13
2023-01-07T10:09:01.168Z,11.75
2023-01-07T10:11:34.198Z,11.38
2023-01-07T10:14:20.087Z,11.57
2023-01-07T10:17:06.095Z,12.07
2023-01-07T10:19:40.068Z,11.45
2023-01-07T10:22:12.554Z,10.45
2023-01-07T10:24:40.694Z,10.48
2023-01-07T10:27:09.485Z,10.05
2023-01-07T10:29:40.672Z,9.95
2023-01-07T10:32:09.024Z,9.85
2023-01-07T10:34:37.102Z,10.10
2023-01-07T10:37:07.889Z,10.43
2023-01-07T10:39:39.554Z,9.55
2023-01-07T10:42:07.211Z,9.07
2023-01-07T10:44:57.730Z,9.00
2023-01-07T10:47:24.870Z,8.10
2023-01-07T10:49:52.086Z,8.43
2023-01-07T10:52:19.454Z,8.23
2023-01-07T10:55:02.055Z,7.25
2023-01-07T10:57:32.235Z,7.30
2023-01-07T11:00:02.537Z,7.50
2023-01-07T11:02:30.525Z,6.82
2023-01-07T11:04:58.167Z,6.40
2023-01-07T11:07:29.238Z,6.30
2023-01-07T11:09:57.064Z,6.20
2023-01-07T11:12:24.297Z,5.78
2023-01-07T11:14:51.532Z,5.53
2023-01-07T11:17:32.787Z,5.25
2023-01-07T11:20:01.916Z,5.25
2023-01-07T11:22:30.652Z,4.50
2023-01-07T11:24:58.378Z,4.57
2023-01-07T11:27:26.279Z,4.90
2023-01-07T11:30:07.440Z,3.75
2023-01-07T11:32:36.168Z,4.13
2023-01-07T11:35:07.466Z,3.75
2023-01-07T11:37:34.714Z,3.72
2023-01-07T11:40:02.643Z,3.85
2023-01-07T11:42:38.909Z,3.37
2023-01-07T11:45:12.239Z,3.40
2023-01-07T11:47:39.475Z,3.45
2023-01-07T11:50:06.945Z,3.22
2023-01-07T11:52:34.125Z,3.40
2023-01-07T11:55:01.396Z,3.40
2023-01-07T11:57:30.031Z,3.30
2023-01-07T12:00:28.673Z,3.00
2023-01-07T12:03:02.819Z,3.22
2023-01-07T12:05:30.313Z,3.30
2023-01-07T12:07:59.052Z,3.45
2023-01-07T12:10:26.879Z,3.00
2023-01-07T12:12:54.722Z,3.20
2023-01-07T12:15:32.050Z,2.55
2023-01-07T12:17:59.192Z,2.80
2023-01-07T12:20:32.198Z,2.40
2023-01-07T12:22:59.361Z,2.50
2023-01-07T12:25:33.742Z,2.60
2023-01-07T12:28:07.102Z,3.22
2023-01-07T12:30:49.526Z,2.85
2023-01-07T12:33:16.742Z,3.25
2023-01-07T12:35:44.742Z,3.03
2023-01-07T12:38:44.619Z,3.45
2023-01-07T12:41:12.748Z,3.28
2023-01-07T12:43:58.811Z,3.80
2023-01-07T12:46:26.114Z,3.38
2023-01-07T12:49:02.673Z,3.30
2023-01-07T12:51:31.941Z,3.50
2023-01-07T12:54:01.020Z,3.97
2023-01-07T12:56:28.539Z,3.63
2023-01-07T12:58:55.706Z,3.80
2023-01-07T13:01:31.403Z,3.78
2023-01-07T13:04:02.185Z,3.83
2023-01-07T13:06:48.148Z,3.80
2023-01-07T13:09:31.839Z,3.47
2023-01-07T13:12:41.842Z,3.72
2023-01-07T13:15:22.697Z,3.50
2023-01-07T13:17:50.432Z,3.50
2023-01-07T13:20:18.444Z,3.25
2023-01-07T13:22:46.873Z,3.35
2023-01-07T13:25:33.851Z,3.28
2023-01-07T13:28:01.038Z,3.50
2023-01-07T13:30:30.986Z,2.72
2023-01-07T13:33:16.503Z,3.47
2023-01-07T13:35:54.530Z,2.80
2023-01-07T13:38:40.290Z,3.10
2023-01-07T13:41:14.641Z,2.53
2023-01-07T13:43:44.918Z,2.40
2023-01-07T13:46:15.971Z,2.40
2023-01-07T13:48:47.792Z,2.80
2023-01-07T13:51:15.026Z,2.22
2023-01-07T13:53:46.705Z,2.55
2023-01-07T13:56:19.903Z,2.50
2023-01-07T13:58:47.582Z,3.20
2023-01-07T14:01:15.075Z,2.80
2023-01-07T14:03:49.787Z,2.92
2023-01-07T14:06:20.337Z,2.78
2023-01-07T14:08:47.569Z,3.22
2023-01-07T14:11:14.710Z,2.80
2023-01-07T14:13:43.618Z,3.30
2023-01-07T14:16:13.867Z,3.40
2023-01-07T14:18:59.968Z,2.70
2023-01-07T14:21:40.791Z,3.13
2023-01-07T14:24:26.797Z,2.90
2023-01-07T14:27:07.367Z,3.28
2023-01-07T14:29:38.811Z,3.63
2023-01-07T14:32:13.293Z,2.77
2023-01-07T14:34:40.796Z,2.78
2023-01-07T14:37:11.481Z,2.83
2023-01-07T14:39:41.615Z,2.65
2023-01-07T14:42:21.183Z,3.10
2023-01-07T14:44:48.367Z,3.08
2023-01-07T14:47:15.921Z,3.00
2023-01-07T14:49:56.165Z,3.20
2023-01-07T14:52:30.072Z,2.95
2023-01-07T14:55:06.600Z,3.27
2023-01-07T14:57:43.385Z,3.00
2023-01-07T15:00:16.564Z,3.15
2023-01-07T15:03:02.435Z,2.70
2023-01-07T15:05:53.267Z,2.72
2023-01-07T15:08:39.699Z,2.88
2023-01-07T15:11:32.032Z,2.53
2023-01-07T15:14:19.219Z,3.10
2023-01-07T15:16:50.089Z,3.28
2023-01-07T15:19:17.287Z,2.95
2023-01-07T15:21:44.543Z,3.17
2023-01-07T15:24:11.720Z,3.40
2023-01-07T15:26:55.305Z,3.47
2023-01-07T15:29:28.855Z,3.42
2023-01-07T15:31:56.177Z,2.90
2023-01-07T15:34:23.348Z,3.72
2023-01-07T15:36:53.070Z,3.50
2023-01-07T15:39:23.154Z,5.00
2023-01-07T15:41:54.071Z,5.72
2023-01-07T15:44:42.227Z,5.30
2023-01-07T15:47:27.493Z,3.63
2023-01-07T15:49:54.717Z,3.10
2023-01-07T15:52:23.581Z,3.55
2023-01-07T15:54:50.735Z,3.93
2023-01-07T15:57:20.399Z,3.67
2023-01-07T15:59:47.972Z,3.80
2023-01-07T16:02:22.180Z,4.00
2023-01-07T16:04:51.220Z,4.00
2023-01-07T16:07:22.496Z,4.22
2023-01-07T16:09:49.987Z,3.42
2023-01-07T16:12:25.361Z,3.37
2023-01-07T16:14:52.819Z,3.67
2023-01-07T16:17:20.933Z,3.63
2023-01-07T16:19:48.224Z,3.72
2023-01-07T16:22:22.020Z,3.72
2023-01-07T16:24:50.076Z,3.70
2023-01-07T16:27:17.576Z,3.03
2023-01-07T16:29:51.882Z,3.60
2023-01-07T16:32:19.767Z,3.67
2023-01-07T16:34:56.035Z,4.07
2023-01-07T16:37:23.539Z,3.83
2023-01-07T16:39:51.466Z,11.20
2023-01-07T16:42:27.217Z,4.05
2023-01-07T16:44:54.990Z,4.57
2023-01-07T16:47:25.704Z,3.75
2023-01-07T16:49:53.570Z,4.47
2023-01-07T16:52:21.364Z,3.72
2023-01-07T16:54:48.882Z,3.97
2023-01-07T16:57:16.070Z,3.28
2023-01-07T16:59:53.758Z,5.57
2023-01-07T17:02:33.304Z,5.20
2023-01-07T17:05:19.658Z,3.67
2023-01-07T17:07:50.962Z,3.38
2023-01-07T17:10:21.848Z,3.80
2023-01-07T17:13:15.331Z,3.00
2023-01-07T17:15:42.941Z,2.65
2023-01-07T17:18:13.406Z,2.55
2023-01-07T17:20:49.522Z,2.88
2023-01-07T17:23:28.552Z,3.13
2023-01-07T17:25:55.776Z,2.85
2023-01-07T17:28:25.239Z,2.38
2023-01-07T17:30:52.671Z,2.40
2023-01-07T17:33:20.453Z,2.13
2023-01-07T17:35:47.691Z,2.22
2023-01-07T17:38:15.629Z,2.13
2023-01-07T17:40:43.096Z,2.33
2023-01-07T17:43:36.857Z,2.28
2023-01-07T17:46:04.439Z,2.13
2023-01-07T17:48:31.975Z,1.92
2023-01-07T17:51:00.660Z,1.63
2023-01-07T17:53:31.689Z,1.42
2023-01-07T17:55:58.855Z,1.80
2023-01-07T17:58:29.438Z,1.73
2023-01-07T18:00:56.808Z,1.70
2023-01-07T18:03:24.249Z,1.30
2023-01-07T18:05:51.436Z,1.60
2023-01-07T18:08:18.649Z,1.70
2023-01-07T18:11:04.505Z,3.77
2023-01-07T18:13:31.738Z,5.15
2023-01-07T18:15:58.903Z,2.30
2023-01-07T18:18:26.199Z,2.05
2023-01-07T18:20:54.177Z,1.73
2023-01-07T18:23:21.748Z,1.98
2023-01-07T18:25:48.977Z,1.98
2023-01-07T18:28:16.295Z,1.60
2023-01-07T18:30:43.488Z,1.63
2023-01-07T18:33:11.147Z,1.70
2023-01-07T18:35:40.656Z,1.40
2023-01-07T18:38:12.227Z,1.50
2023-01-07T18:40:39.427Z,1.75
2023-01-07T18:43:06.659Z,1.57
2023-01-07T18:45:33.915Z,1.30
2023-01-07T18:48:01.072Z,1.40
2023-01-07T18:50:28.365Z,1.50
2023-01-07T18:52:55.650Z,1.30
2023-01-07T18:55:22.904Z,1.70
2023-01-07T18:57:50.091Z,1.77
2023-01-07T19:00:17.492Z,1.37
2023-01-07T19:02:44.722Z,1.87
2023-01-07T19:05:11.928Z,1.92
2023-01-07T19:07:39.111Z,2.00
2023-01-07T19:10:06.508Z,2.10
2023-01-07T19:12:33.826Z,1.60
2023-01-07T19:15:00.979Z,2.00
2023-01-07T19:17:28.142Z,1.75
2023-01-07T19:19:55.309Z,1.85
2023-01-07T19:22:23.349Z,1.95
2023-01-07T19:24:50.559Z,2.10
2023-01-07T19:27:17.765Z,1.73
2023-01-07T19:29:44.959Z,2.30
2023-01-07T19:32:12.419Z,2.10
2023-01-07T19:34:39.719Z,1.90
2023-01-07T19:37:07.054Z,1.73
2023-01-07T19:39:34.263Z,1.92
2023-01-07T19:42:01.418Z,2.10
2023-01-07T19:44:28.588Z,1.92
2023-01-07T19:46:55.732Z,1.90
2023-01-07T19:49:23.024Z,2.33
2023-01-07T19:51:52.432Z,1.63
2023-01-07T19:54:19.729Z,1.73
2023-01-07T19:56:46.981Z,1.65
2023-01-07T19:59:14.167Z,1.63
2023-01-07T20:01:42.095Z,1.63
2023-01-07T20:04:09.523Z,1.70
2023-01-07T20:06:41.184Z,1.63
2023-01-07T20:09:11.635Z,1.40
2023-01-07T20:11:39.170Z,2.30
2023-01-07T20:14:07.546Z,1.52
2023-01-07T20:16:36.737Z,1.50
2023-01-07T20:19:05.294Z,1.45
2023-01-07T20:21:32.610Z,1.50
2023-01-07T20:23:59.828Z,1.50
2023-01-07T20:26:28.266Z,1.10
2023-01-07T20:28:55.485Z,1.20
2023-01-07T20:31:23.336Z,1.40
2023-01-07T20:33:50.544Z,1.20
2023-01-07T20:36:18.382Z,1.17
2023-01-07T20:38:45.867Z,0.98
2023-01-07T20:41:13.889Z,1.23
2023-01-07T20:43:41.079Z,1.00
2023-01-07T20:46:08.482Z,1.35
2023-01-07T20:48:35.771Z,1.23
2023-01-07T20:51:09.560Z,1.05
2023-01-07T20:53:37.365Z,1.40
2023-01-07T20:56:06.270Z,1.50
2023-01-07T20:58:34.143Z,1.10
2023-01-07T21:01:11.825Z,1.10
2023-01-07T21:03:39.158Z,1.27
2023-01-07T21:06:09.436Z,1.25
2023-01-07T21:08:37.291Z,1.23
2023-01-07T21:11:04.516Z,1.10
2023-01-07T21:13:31.686Z,1.20
2023-01-07T21:16:03.297Z,1.20
2023-01-07T21:18:30.989Z,0.87
2023-01-07T21:20:58.264Z,1.10
2023-01-07T21:23:26.514Z,1.27
2023-01-07T21:25:53.727Z,1.45
2023-01-07T21:28:21.012Z,1.60
2023-01-07T21:30:48.292Z,1.25
2023-01-07T21:33:16.760Z,1.52
2023-01-07T21:35:43.962Z,1.27
2023-01-07T21:38:11.136Z,1.42
2023-01-07T21:40:39.429Z,1.30
2023-01-07T21:43:06.645Z,1.70
2023-01-07T21:45:33.900Z,1.58
2023-01-07T21:48:01.074Z,1.55
2023-01-07T21:50:28.272Z,1.95
2023-01-07T21:52:55.438Z,1.77
2023-01-07T21:55:22.644Z,2.10
2023-01-07T21:57:49.894Z,1.58
2023-01-07T22:00:17.271Z,1.70
2023-01-07T22:02:44.853Z,1.77
2023-01-07T22:05:12.081Z,2.00
2023-01-07T22:07:39.566Z,2.17
2023-01-07T22:10:06.983Z,1.90
2023-01-07T22:12:34.108Z,1.75
2023-01-07T22:15:01.380Z,2.17
2023-01-07T22:17:28.566Z,1.85
2023-01-07T22:19:55.808Z,2.05
2023-01-07T22:22:23.013Z,1.73
2023-01-07T22:24:50.172Z,1.90
2023-01-07T22:27:17.320Z,2.07
2023-01-07T22:29:44.809Z,2.22
2023-01-07T22:32:11.998Z,2.17
2023-01-07T22:34:39.766Z,2.42
2023-01-07T22:37:08.422Z,2.42
2023-01-07T22:39:36.873Z,2.30
2023-01-07T22:42:06.868Z,2.30
2023-01-07T22:44:39.961Z,2.22
2023-01-07T22:47:07.694Z,2.17
2023-01-07T22:49:35.043Z,2.55
2023-01-07T22:52:02.327Z,2.22
2023-01-07T22:54:29.470Z,2.47
2023-01-07T22:56:56.703Z,2.85
2023-01-07T22:59:23.902Z,2.15
2023-01-07T23:01:51.101Z,2.50
2023-01-07T23:04:18.375Z,2.45
2023-01-07T23:06:45.654Z,2.55
2023-01-07T23:09:12.894Z,2.72
2023-01-07T23:11:49.366Z,2.88
2023-01-07T23:14:17.772Z,2.80
2023-01-07T23:16:45.108Z,2.60
2023-01-07T23:19:12.635Z,2.90
2023-01-07T23:21:40.413Z,2.70
2023-01-07T23:24:07.665Z,2.80
2023-01-07T23:26:34.928Z,2.72
2023-01-07T23:29:02.120Z,3.10
2023-01-07T23:31:29.387Z,2.92
2023-01-07T23:33:56.640Z,3.13
2023-01-07T23:36:23.838Z,3.05
2023-01-07T23:38:51.049Z,3.30
2023-01-07T23:41:18.853Z,3.22
2023-01-07T23:43:46.047Z,3.53
2023-01-07T23:46:13.430Z,2.70
2023-01-07T23:48:40.636Z,3.20
2023-01-07T23:51:08.929Z,2.83
2023-01-07T23:53:36.246Z,2.78
2023-01-07T23:56:03.582Z,3.10
2023-01-07T23:58:30.853Z,3.15
